sensor_id;sensor_type;location;lat;lon;timestamp;P1;durP1;ratioP1;P2;durP2;ratioP2
60964;SDS011;46834;51.100;6.886;2023-01-26T00:01:14;36.70;;;17.43;;
60964;SDS011;46834;51.100;6.886;2023-01-26T00:03:43;34.33;;;16.73;;
60964;SDS011;46834;51.100;6.886;2023-01-26T00:06:10;34.30;;;17.23;;
60964;SDS011;46834;51.100;6.886;2023-01-26T00:08:40;33.83;;;17.07;;
60964;SDS011;46834;51.100;6.886;2023-01-26T00:11:10;36.33;;;18.27;;
60964;SDS011;46834;51.100;6.886;2023-01-26T00:13:40;39.93;;;18.57;;
60964;SDS011;46834;51.100;6.886;2023-01-26T00:16:13;35.70;;;17.67;;
60964;SDS011;46834;51.100;6.886;2023-01-26T00:18:39;35.47;;;17.80;;
60964;SDS011;46834;51.100;6.886;2023-01-26T00:21:07;35.87;;;17.90;;
60964;SDS011;46834;51.100;6.886;2023-01-26T00:23:37;40.17;;;18.27;;
60964;SDS011;46834;51.100;6.886;2023-01-26T00:26:06;38.87;;;17.37;;
60964;SDS011;46834;51.100;6.886;2023-01-26T00:28:35;39.47;;;18.73;;
60964;SDS011;46834;51.100;6.886;2023-01-26T00:31:05;35.87;;;17.23;;
60964;SDS011;46834;51.100;6.886;2023-01-26T00:33:34;37.57;;;18.27;;
60964;SDS011;46834;51.100;6.886;2023-01-26T00:35:59;41.17;;;18.87;;
60964;SDS011;46834;51.100;6.886;2023-01-26T00:38:25;38.10;;;18.83;;
60964;SDS011;46834;51.100;6.886;2023-01-26T00:40:51;39.33;;;19.40;;
60964;SDS011;46834;51.100;6.886;2023-01-26T00:43:17;38.20;;;18.67;;
60964;SDS011;46834;51.100;6.886;2023-01-26T00:45:43;36.70;;;18.00;;
60964;SDS011;46834;51.100;6.886;2023-01-26T00:48:09;38.67;;;18.60;;
60964;SDS011;46834;51.100;6.886;2023-01-26T00:50:34;42.63;;;19.07;;
60964;SDS011;46834;51.100;6.886;2023-01-26T00:53:00;35.60;;;17.37;;
60964;SDS011;46834;51.100;6.886;2023-01-26T00:55:26;38.37;;;17.77;;
60964;SDS011;46834;51.100;6.886;2023-01-26T00:57:56;40.00;;;18.70;;
60964;SDS011;46834;51.100;6.886;2023-01-26T01:00:27;35.03;;;17.70;;
60964;SDS011;46834;51.100;6.886;2023-01-26T01:02:54;38.80;;;17.47;;
60964;SDS011;46834;51.100;6.886;2023-01-26T01:05:21;39.87;;;18.70;;
60964;SDS011;46834;51.100;6.886;2023-01-26T01:07:48;38.43;;;18.23;;
60964;SDS011;46834;51.100;6.886;2023-01-26T01:10:14;40.60;;;18.93;;
60964;SDS011;46834;51.100;6.886;2023-01-26T01:12:40;41.50;;;19.50;;
60964;SDS011;46834;51.100;6.886;2023-01-26T01:15:06;37.33;;;18.60;;
60964;SDS011;46834;51.100;6.886;2023-01-26T01:17:32;42.30;;;19.27;;
60964;SDS011;46834;51.100;6.886;2023-01-26T01:20:00;40.73;;;18.70;;
60964;SDS011;46834;51.100;6.886;2023-01-26T01:22:29;42.13;;;19.97;;
60964;SDS011;46834;51.100;6.886;2023-01-26T01:24:56;41.13;;;19.20;;
60964;SDS011;46834;51.100;6.886;2023-01-26T01:27:21;41.27;;;19.70;;
60964;SDS011;46834;51.100;6.886;2023-01-26T01:29:48;38.40;;;18.10;;
60964;SDS011;46834;51.100;6.886;2023-01-26T01:32:15;41.83;;;19.50;;
60964;SDS011;46834;51.100;6.886;2023-01-26T01:34:41;39.30;;;19.80;;
60964;SDS011;46834;51.100;6.886;2023-01-26T01:37:07;39.97;;;18.30;;
60964;SDS011;46834;51.100;6.886;2023-01-26T01:39:32;41.50;;;19.40;;
60964;SDS011;46834;51.100;6.886;2023-01-26T01:41:58;39.33;;;18.93;;
60964;SDS011;46834;51.100;6.886;2023-01-26T01:44:24;35.83;;;18.47;;
60964;SDS011;46834;51.100;6.886;2023-01-26T01:47:00;42.13;;;19.67;;
60964;SDS011;46834;51.100;6.886;2023-01-26T01:49:29;39.03;;;18.73;;
60964;SDS011;46834;51.100;6.886;2023-01-26T01:52:21;42.23;;;19.50;;
60964;SDS011;46834;51.100;6.886;2023-01-26T01:54:53;41.77;;;19.00;;
60964;SDS011;46834;51.100;6.886;2023-01-26T01:57:27;42.07;;;20.20;;
60964;SDS011;46834;51.100;6.886;2023-01-26T02:00:09;40.57;;;18.83;;
60964;SDS011;46834;51.100;6.886;2023-01-26T02:02:45;42.37;;;20.63;;
60964;SDS011;46834;51.100;6.886;2023-01-26T02:05:38;40.70;;;18.30;;
60964;SDS011;46834;51.100;6.886;2023-01-26T02:08:28;38.17;;;18.30;;
60964;SDS011;46834;51.100;6.886;2023-01-26T02:10:59;40.37;;;20.03;;
60964;SDS011;46834;51.100;6.886;2023-01-26T02:13:33;42.43;;;20.37;;
60964;SDS011;46834;51.100;6.886;2023-01-26T02:16:01;44.00;;;19.30;;
60964;SDS011;46834;51.100;6.886;2023-01-26T02:18:27;47.30;;;21.63;;
60964;SDS011;46834;51.100;6.886;2023-01-26T02:20:55;47.43;;;21.47;;
60964;SDS011;46834;51.100;6.886;2023-01-26T02:26:49;46.70;;;19.53;;
60964;SDS011;46834;51.100;6.886;2023-01-26T02:29:18;43.90;;;20.27;;
60964;SDS011;46834;51.100;6.886;2023-01-26T02:31:45;45.57;;;19.50;;
60964;SDS011;46834;51.100;6.886;2023-01-26T02:34:11;41.63;;;18.70;;
60964;SDS011;46834;51.100;6.886;2023-01-26T02:36:36;45.17;;;20.53;;
60964;SDS011;46834;51.100;6.886;2023-01-26T02:42:11;43.00;;;18.90;;
60964;SDS011;46834;51.100;6.886;2023-01-26T02:44:55;38.27;;;16.90;;
60964;SDS011;46834;51.100;6.886;2023-01-26T02:47:21;40.83;;;17.40;;
60964;SDS011;46834;51.100;6.886;2023-01-26T02:49:47;44.23;;;18.73;;
60964;SDS011;46834;51.100;6.886;2023-01-26T02:52:18;42.43;;;18.63;;
60964;SDS011;46834;51.100;6.886;2023-01-26T02:54:47;42.07;;;18.40;;
60964;SDS011;46834;51.100;6.886;2023-01-26T02:57:32;37.10;;;17.50;;
60964;SDS011;46834;51.100;6.886;2023-01-26T02:59:59;48.33;;;19.33;;
60964;SDS011;46834;51.100;6.886;2023-01-26T03:02:25;45.57;;;18.33;;
60964;SDS011;46834;51.100;6.886;2023-01-26T03:04:51;47.90;;;19.83;;
60964;SDS011;46834;51.100;6.886;2023-01-26T03:07:17;40.47;;;17.53;;
60964;SDS011;46834;51.100;6.886;2023-01-26T03:09:42;46.53;;;19.07;;
60964;SDS011;46834;51.100;6.886;2023-01-26T03:12:08;41.83;;;18.43;;
60964;SDS011;46834;51.100;6.886;2023-01-26T03:14:34;42.90;;;18.90;;
60964;SDS011;46834;51.100;6.886;2023-01-26T03:16:59;44.40;;;18.07;;
60964;SDS011;46834;51.100;6.886;2023-01-26T03:19:25;42.57;;;18.87;;
60964;SDS011;46834;51.100;6.886;2023-01-26T03:22:10;38.03;;;17.57;;
60964;SDS011;46834;51.100;6.886;2023-01-26T03:24:54;39.27;;;17.10;;
60964;SDS011;46834;51.100;6.886;2023-01-26T03:27:40;40.00;;;17.50;;
60964;SDS011;46834;51.100;6.886;2023-01-26T03:30:11;44.00;;;18.80;;
60964;SDS011;46834;51.100;6.886;2023-01-26T03:32:40;40.27;;;17.80;;
60964;SDS011;46834;51.100;6.886;2023-01-26T03:35:06;39.53;;;17.03;;
60964;SDS011;46834;51.100;6.886;2023-01-26T03:37:43;43.13;;;19.00;;
60964;SDS011;46834;51.100;6.886;2023-01-26T03:40:10;43.70;;;18.23;;
60964;SDS011;46834;51.100;6.886;2023-01-26T03:42:55;41.57;;;17.47;;
60964;SDS011;46834;51.100;6.886;2023-01-26T03:45:40;37.20;;;16.83;;
60964;SDS011;46834;51.100;6.886;2023-01-26T03:48:24;40.73;;;16.63;;
60964;SDS011;46834;51.100;6.886;2023-01-26T03:51:08;40.60;;;17.53;;
60964;SDS011;46834;51.100;6.886;2023-01-26T03:53:52;39.57;;;17.50;;
60964;SDS011;46834;51.100;6.886;2023-01-26T03:56:36;37.13;;;16.87;;
60964;SDS011;46834;51.100;6.886;2023-01-26T03:59:03;38.03;;;16.37;;
60964;SDS011;46834;51.100;6.886;2023-01-26T04:01:43;36.93;;;16.60;;
60964;SDS011;46834;51.100;6.886;2023-01-26T04:04:30;37.20;;;17.00;;
60964;SDS011;46834;51.100;6.886;2023-01-26T04:07:14;37.87;;;16.50;;
60964;SDS011;46834;51.100;6.886;2023-01-26T04:09:59;43.67;;;17.17;;
60964;SDS011;46834;51.100;6.886;2023-01-26T04:12:24;38.37;;;17.43;;
60964;SDS011;46834;51.100;6.886;2023-01-26T04:14:50;38.60;;;17.80;;
60964;SDS011;46834;51.100;6.886;2023-01-26T04:17:34;40.47;;;18.67;;
60964;SDS011;46834;51.100;6.886;2023-01-26T04:20:18;41.40;;;17.63;;
60964;SDS011;46834;51.100;6.886;2023-01-26T04:23:02;38.70;;;16.17;;
60964;SDS011;46834;51.100;6.886;2023-01-26T04:25:28;41.13;;;16.87;;
60964;SDS011;46834;51.100;6.886;2023-01-26T04:27:54;41.60;;;17.77;;
60964;SDS011;46834;51.100;6.886;2023-01-26T04:30:19;38.30;;;16.37;;
60964;SDS011;46834;51.100;6.886;2023-01-26T04:32:45;40.30;;;17.27;;
60964;SDS011;46834;51.100;6.886;2023-01-26T04:35:11;34.20;;;16.13;;
60964;SDS011;46834;51.100;6.886;2023-01-26T04:37:37;35.53;;;15.53;;
60964;SDS011;46834;51.100;6.886;2023-01-26T04:40:07;33.50;;;15.03;;
60964;SDS011;46834;51.100;6.886;2023-01-26T04:42:33;31.30;;;14.70;;
60964;SDS011;46834;51.100;6.886;2023-01-26T04:44:59;35.17;;;14.93;;
60964;SDS011;46834;51.100;6.886;2023-01-26T04:47:24;34.90;;;15.53;;
60964;SDS011;46834;51.100;6.886;2023-01-26T04:49:50;34.17;;;14.57;;
60964;SDS011;46834;51.100;6.886;2023-01-26T04:52:16;26.80;;;13.67;;
60964;SDS011;46834;51.100;6.886;2023-01-26T04:54:41;32.33;;;14.03;;
60964;SDS011;46834;51.100;6.886;2023-01-26T04:57:07;30.90;;;14.13;;
60964;SDS011;46834;51.100;6.886;2023-01-26T04:59:33;31.37;;;14.17;;
60964;SDS011;46834;51.100;6.886;2023-01-26T05:01:59;32.10;;;14.40;;
60964;SDS011;46834;51.100;6.886;2023-01-26T05:04:25;32.00;;;14.93;;
60964;SDS011;46834;51.100;6.886;2023-01-26T05:06:51;31.87;;;14.47;;
60964;SDS011;46834;51.100;6.886;2023-01-26T05:09:16;32.07;;;13.80;;
60964;SDS011;46834;51.100;6.886;2023-01-26T05:11:42;31.17;;;14.17;;
60964;SDS011;46834;51.100;6.886;2023-01-26T05:14:08;32.07;;;13.80;;
60964;SDS011;46834;51.100;6.886;2023-01-26T05:16:33;30.00;;;14.90;;
60964;SDS011;46834;51.100;6.886;2023-01-26T05:18:59;30.43;;;14.27;;
60964;SDS011;46834;51.100;6.886;2023-01-26T05:21:25;34.10;;;15.90;;
60964;SDS011;46834;51.100;6.886;2023-01-26T05:23:51;31.43;;;14.87;;
60964;SDS011;46834;51.100;6.886;2023-01-26T05:26:20;32.70;;;14.93;;
60964;SDS011;46834;51.100;6.886;2023-01-26T05:28:46;33.00;;;15.70;;
60964;SDS011;46834;51.100;6.886;2023-01-26T05:31:12;31.07;;;14.40;;
60964;SDS011;46834;51.100;6.886;2023-01-26T05:33:37;34.20;;;15.40;;
60964;SDS011;46834;51.100;6.886;2023-01-26T05:36:04;36.63;;;15.67;;
60964;SDS011;46834;51.100;6.886;2023-01-26T05:38:31;38.10;;;17.20;;
60964;SDS011;46834;51.100;6.886;2023-01-26T05:40:57;39.83;;;16.87;;
60964;SDS011;46834;51.100;6.886;2023-01-26T05:43:23;36.67;;;16.60;;
60964;SDS011;46834;51.100;6.886;2023-01-26T05:45:49;35.87;;;16.60;;
60964;SDS011;46834;51.100;6.886;2023-01-26T05:48:14;32.47;;;15.50;;
60964;SDS011;46834;51.100;6.886;2023-01-26T05:50:40;38.40;;;16.43;;
60964;SDS011;46834;51.100;6.886;2023-01-26T05:53:06;35.40;;;16.23;;
60964;SDS011;46834;51.100;6.886;2023-01-26T05:55:32;36.20;;;16.40;;
60964;SDS011;46834;51.100;6.886;2023-01-26T05:57:57;39.27;;;16.23;;
60964;SDS011;46834;51.100;6.886;2023-01-26T06:00:23;37.27;;;16.43;;
60964;SDS011;46834;51.100;6.886;2023-01-26T06:02:49;38.60;;;17.43;;
60964;SDS011;46834;51.100;6.886;2023-01-26T06:05:15;35.03;;;16.20;;
60964;SDS011;46834;51.100;6.886;2023-01-26T06:07:41;41.90;;;17.00;;
60964;SDS011;46834;51.100;6.886;2023-01-26T06:10:06;35.20;;;16.73;;
60964;SDS011;46834;51.100;6.886;2023-01-26T06:12:33;35.70;;;15.97;;
60964;SDS011;46834;51.100;6.886;2023-01-26T06:14:59;38.20;;;16.43;;
60964;SDS011;46834;51.100;6.886;2023-01-26T06:17:29;35.63;;;16.43;;
60964;SDS011;46834;51.100;6.886;2023-01-26T06:19:56;34.30;;;16.97;;
60964;SDS011;46834;51.100;6.886;2023-01-26T06:22:22;39.27;;;17.40;;
60964;SDS011;46834;51.100;6.886;2023-01-26T06:24:48;35.13;;;17.53;;
60964;SDS011;46834;51.100;6.886;2023-01-26T06:27:15;38.47;;;17.50;;
60964;SDS011;46834;51.100;6.886;2023-01-26T06:29:42;35.93;;;16.63;;
60964;SDS011;46834;51.100;6.886;2023-01-26T06:32:09;38.93;;;17.83;;
60964;SDS011;46834;51.100;6.886;2023-01-26T06:34:39;34.70;;;16.40;;
60964;SDS011;46834;51.100;6.886;2023-01-26T06:37:05;37.07;;;16.23;;
60964;SDS011;46834;51.100;6.886;2023-01-26T06:39:31;36.13;;;15.93;;
60964;SDS011;46834;51.100;6.886;2023-01-26T06:41:57;38.10;;;15.17;;
60964;SDS011;46834;51.100;6.886;2023-01-26T06:44:23;35.53;;;15.87;;
60964;SDS011;46834;51.100;6.886;2023-01-26T06:46:49;31.00;;;14.73;;
60964;SDS011;46834;51.100;6.886;2023-01-26T06:49:14;29.50;;;14.03;;
60964;SDS011;46834;51.100;6.886;2023-01-26T06:51:45;29.60;;;13.73;;
60964;SDS011;46834;51.100;6.886;2023-01-26T06:54:20;30.07;;;13.70;;
60964;SDS011;46834;51.100;6.886;2023-01-26T06:56:45;24.63;;;11.83;;
60964;SDS011;46834;51.100;6.886;2023-01-26T06:59:11;28.43;;;13.20;;
60964;SDS011;46834;51.100;6.886;2023-01-26T07:01:38;29.97;;;12.70;;
60964;SDS011;46834;51.100;6.886;2023-01-26T07:04:09;25.67;;;12.87;;
60964;SDS011;46834;51.100;6.886;2023-01-26T07:06:35;27.73;;;13.80;;
60964;SDS011;46834;51.100;6.886;2023-01-26T07:09:00;27.57;;;13.73;;
60964;SDS011;46834;51.100;6.886;2023-01-26T07:11:26;29.30;;;14.00;;
60964;SDS011;46834;51.100;6.886;2023-01-26T07:13:54;31.73;;;14.60;;
60964;SDS011;46834;51.100;6.886;2023-01-26T07:16:20;27.53;;;14.37;;
60964;SDS011;46834;51.100;6.886;2023-01-26T07:18:46;30.13;;;14.13;;
60964;SDS011;46834;51.100;6.886;2023-01-26T07:21:12;28.53;;;14.03;;
60964;SDS011;46834;51.100;6.886;2023-01-26T07:23:44;27.33;;;13.37;;
60964;SDS011;46834;51.100;6.886;2023-01-26T07:26:10;29.73;;;14.23;;
60964;SDS011;46834;51.100;6.886;2023-01-26T07:28:37;28.60;;;12.63;;
60964;SDS011;46834;51.100;6.886;2023-01-26T07:31:03;25.77;;;12.57;;
60964;SDS011;46834;51.100;6.886;2023-01-26T07:33:31;27.30;;;13.30;;
60964;SDS011;46834;51.100;6.886;2023-01-26T07:35:58;25.80;;;12.83;;
60964;SDS011;46834;51.100;6.886;2023-01-26T07:38:25;27.47;;;12.37;;
60964;SDS011;46834;51.100;6.886;2023-01-26T07:40:53;24.80;;;12.90;;
60964;SDS011;46834;51.100;6.886;2023-01-26T07:43:19;25.00;;;12.30;;
60964;SDS011;46834;51.100;6.886;2023-01-26T07:45:46;26.00;;;12.50;;
60964;SDS011;46834;51.100;6.886;2023-01-26T07:48:15;25.70;;;12.77;;
60964;SDS011;46834;51.100;6.886;2023-01-26T07:50:42;25.77;;;12.70;;
60964;SDS011;46834;51.100;6.886;2023-01-26T07:53:09;27.07;;;13.20;;
60964;SDS011;46834;51.100;6.886;2023-01-26T07:55:38;25.63;;;13.30;;
60964;SDS011;46834;51.100;6.886;2023-01-26T07:58:07;25.47;;;12.77;;
60964;SDS011;46834;51.100;6.886;2023-01-26T08:00:34;32.83;;;14.20;;
60964;SDS011;46834;51.100;6.886;2023-01-26T08:03:00;29.20;;;14.67;;
60964;SDS011;46834;51.100;6.886;2023-01-26T08:05:25;30.80;;;14.57;;
60964;SDS011;46834;51.100;6.886;2023-01-26T08:07:51;31.10;;;13.50;;
60964;SDS011;46834;51.100;6.886;2023-01-26T08:10:17;28.80;;;13.70;;
60964;SDS011;46834;51.100;6.886;2023-01-26T08:12:43;27.93;;;14.40;;
60964;SDS011;46834;51.100;6.886;2023-01-26T08:15:08;31.87;;;14.33;;
60964;SDS011;46834;51.100;6.886;2023-01-26T08:17:35;30.40;;;14.17;;
60964;SDS011;46834;51.100;6.886;2023-01-26T08:20:02;30.23;;;13.90;;
60964;SDS011;46834;51.100;6.886;2023-01-26T08:22:28;34.07;;;14.47;;
60964;SDS011;46834;51.100;6.886;2023-01-26T08:24:54;46.90;;;25.07;;
60964;SDS011;46834;51.100;6.886;2023-01-26T08:27:20;38.73;;;17.93;;
60964;SDS011;46834;51.100;6.886;2023-01-26T08:29:47;35.13;;;17.48;;
60964;SDS011;46834;51.100;6.886;2023-01-26T08:32:12;33.10;;;16.47;;
60964;SDS011;46834;51.100;6.886;2023-01-26T08:34:38;36.10;;;17.17;;
60964;SDS011;46834;51.100;6.886;2023-01-26T08:37:04;35.00;;;14.63;;
60964;SDS011;46834;51.100;6.886;2023-01-26T08:39:29;29.43;;;14.63;;
60964;SDS011;46834;51.100;6.886;2023-01-26T08:41:55;32.20;;;14.93;;
60964;SDS011;46834;51.100;6.886;2023-01-26T08:44:21;29.17;;;14.47;;
60964;SDS011;46834;51.100;6.886;2023-01-26T08:46:46;26.93;;;14.10;;
60964;SDS011;46834;51.100;6.886;2023-01-26T08:49:12;29.97;;;14.50;;
60964;SDS011;46834;51.100;6.886;2023-01-26T08:51:38;33.47;;;15.00;;
60964;SDS011;46834;51.100;6.886;2023-01-26T08:54:04;49.33;;;26.47;;
60964;SDS011;46834;51.100;6.886;2023-01-26T08:56:32;41.80;;;20.30;;
60964;SDS011;46834;51.100;6.886;2023-01-26T08:58:59;32.83;;;17.03;;
60964;SDS011;46834;51.100;6.886;2023-01-26T09:01:25;48.10;;;25.45;;
60964;SDS011;46834;51.100;6.886;2023-01-26T09:03:50;43.33;;;21.17;;
60964;SDS011;46834;51.100;6.886;2023-01-26T09:06:17;33.80;;;16.53;;
60964;SDS011;46834;51.100;6.886;2023-01-26T09:08:43;33.20;;;15.80;;
60964;SDS011;46834;51.100;6.886;2023-01-26T09:11:09;38.43;;;17.43;;
60964;SDS011;46834;51.100;6.886;2023-01-26T09:13:36;30.93;;;15.60;;
60964;SDS011;46834;51.100;6.886;2023-01-26T09:16:06;33.37;;;16.17;;
60964;SDS011;46834;51.100;6.886;2023-01-26T09:18:39;30.00;;;14.87;;
60964;SDS011;46834;51.100;6.886;2023-01-26T09:21:05;30.47;;;14.60;;
60964;SDS011;46834;51.100;6.886;2023-01-26T09:23:33;29.50;;;14.60;;
60964;SDS011;46834;51.100;6.886;2023-01-26T09:26:00;26.43;;;13.50;;
60964;SDS011;46834;51.100;6.886;2023-01-26T09:28:27;25.20;;;12.87;;
60964;SDS011;46834;51.100;6.886;2023-01-26T09:30:55;28.43;;;13.20;;
60964;SDS011;46834;51.100;6.886;2023-01-26T09:33:21;26.60;;;13.47;;
60964;SDS011;46834;51.100;6.886;2023-01-26T09:35:47;29.63;;;14.60;;
60964;SDS011;46834;51.100;6.886;2023-01-26T09:38:13;27.17;;;13.83;;
60964;SDS011;46834;51.100;6.886;2023-01-26T09:40:43;25.07;;;12.80;;
60964;SDS011;46834;51.100;6.886;2023-01-26T09:43:55;23.73;;;12.47;;
60964;SDS011;46834;51.100;6.886;2023-01-26T09:46:31;42.08;;;23.30;;
60964;SDS011;46834;51.100;6.886;2023-01-26T09:51:57;30.50;;;15.63;;
60964;SDS011;46834;51.100;6.886;2023-01-26T09:54:36;30.00;;;15.23;;
60964;SDS011;46834;51.100;6.886;2023-01-26T09:57:16;30.90;;;14.30;;
60964;SDS011;46834;51.100;6.886;2023-01-26T10:00:08;30.10;;;14.80;;
60964;SDS011;46834;51.100;6.886;2023-01-26T10:08:50;46.47;;;24.30;;
60964;SDS011;46834;51.100;6.886;2023-01-26T10:14:52;45.63;;;24.43;;
60964;SDS011;46834;51.100;6.886;2023-01-26T10:17:34;35.67;;;17.03;;
60964;SDS011;46834;51.100;6.886;2023-01-26T10:20:21;31.07;;;15.77;;
60964;SDS011;46834;51.100;6.886;2023-01-26T10:23:12;30.77;;;14.53;;
60964;SDS011;46834;51.100;6.886;2023-01-26T10:25:42;27.60;;;13.60;;
60964;SDS011;46834;51.100;6.886;2023-01-26T10:30:41;28.90;;;13.63;;
60964;SDS011;46834;51.100;6.886;2023-01-26T10:33:53;42.25;;;22.88;;
60964;SDS011;46834;51.100;6.886;2023-01-26T10:36:02;37.63;;;17.77;;
60964;SDS011;46834;51.100;6.886;2023-01-26T10:40:59;28.90;;;14.17;;
60964;SDS011;46834;51.100;6.886;2023-01-26T10:43:46;28.73;;;12.87;;
60964;SDS011;46834;51.100;6.886;2023-01-26T10:51:34;40.83;;;21.67;;
60964;SDS011;46834;51.100;6.886;2023-01-26T10:54:12;32.95;;;17.00;;
60964;SDS011;46834;51.100;6.886;2023-01-26T10:56:55;29.90;;;14.00;;
60964;SDS011;46834;51.100;6.886;2023-01-26T10:59:41;27.87;;;13.40;;
60964;SDS011;46834;51.100;6.886;2023-01-26T11:05:02;28.93;;;13.33;;
60964;SDS011;46834;51.100;6.886;2023-01-26T11:07:32;30.67;;;13.20;;
60964;SDS011;46834;51.100;6.886;2023-01-26T11:18:58;37.07;;;16.97;;
60964;SDS011;46834;51.100;6.886;2023-01-26T11:29:36;30.27;;;13.17;;
60964;SDS011;46834;51.100;6.886;2023-01-26T11:32:29;32.53;;;15.23;;
60964;SDS011;46834;51.100;6.886;2023-01-26T11:35:28;30.60;;;13.60;;
60964;SDS011;46834;51.100;6.886;2023-01-26T11:38:54;30.20;;;14.33;;
60964;SDS011;46834;51.100;6.886;2023-01-26T11:47:28;27.33;;;12.63;;
60964;SDS011;46834;51.100;6.886;2023-01-26T11:50:23;25.30;;;12.83;;
60964;SDS011;46834;51.100;6.886;2023-01-26T11:56:00;27.60;;;14.00;;
60964;SDS011;46834;51.100;6.886;2023-01-26T11:59:05;44.13;;;22.83;;
60964;SDS011;46834;51.100;6.886;2023-01-26T12:02:02;42.70;;;22.83;;
60964;SDS011;46834;51.100;6.886;2023-01-26T12:04:52;33.40;;;16.07;;
60964;SDS011;46834;51.100;6.886;2023-01-26T12:07:26;25.87;;;13.47;;
60964;SDS011;46834;51.100;6.886;2023-01-26T12:10:23;23.17;;;12.63;;
60964;SDS011;46834;51.100;6.886;2023-01-26T12:13:46;23.10;;;11.50;;
60964;SDS011;46834;51.100;6.886;2023-01-26T12:17:12;39.43;;;21.57;;
60964;SDS011;46834;51.100;6.886;2023-01-26T12:20:17;29.63;;;14.40;;
60964;SDS011;46834;51.100;6.886;2023-01-26T12:23:03;22.77;;;11.87;;
60964;SDS011;46834;51.100;6.886;2023-01-26T12:25:33;22.60;;;11.47;;
60964;SDS011;46834;51.100;6.886;2023-01-26T12:33:24;20.73;;;10.47;;
60964;SDS011;46834;51.100;6.886;2023-01-26T12:35:59;19.37;;;10.13;;
60964;SDS011;46834;51.100;6.886;2023-01-26T12:39:07;20.53;;;9.63;;
60964;SDS011;46834;51.100;6.886;2023-01-26T12:42:00;19.07;;;9.73;;
60964;SDS011;46834;51.100;6.886;2023-01-26T12:44:37;17.93;;;9.63;;
60964;SDS011;46834;51.100;6.886;2023-01-26T12:53:12;15.73;;;8.97;;
60964;SDS011;46834;51.100;6.886;2023-01-26T12:55:51;13.87;;;7.93;;
60964;SDS011;46834;51.100;6.886;2023-01-26T12:58:30;14.03;;;8.07;;
60964;SDS011;46834;51.100;6.886;2023-01-26T13:01:03;13.80;;;7.67;;
60964;SDS011;46834;51.100;6.886;2023-01-26T13:03:38;13.23;;;7.13;;
60964;SDS011;46834;51.100;6.886;2023-01-26T13:11:04;12.30;;;6.40;;
60964;SDS011;46834;51.100;6.886;2023-01-26T13:13:53;11.50;;;5.93;;
60964;SDS011;46834;51.100;6.886;2023-01-26T13:16:32;9.83;;;5.70;;
60964;SDS011;46834;51.100;6.886;2023-01-26T13:18:59;9.77;;;5.17;;
60964;SDS011;46834;51.100;6.886;2023-01-26T13:26:45;11.77;;;6.73;;
60964;SDS011;46834;51.100;6.886;2023-01-26T13:31:49;9.50;;;6.07;;
60964;SDS011;46834;51.100;6.886;2023-01-26T13:34:24;9.37;;;5.63;;
60964;SDS011;46834;51.100;6.886;2023-01-26T13:37:11;8.20;;;5.27;;
60964;SDS011;46834;51.100;6.886;2023-01-26T13:40:04;7.73;;;5.20;;
60964;SDS011;46834;51.100;6.886;2023-01-26T13:42:51;8.67;;;5.33;;
60964;SDS011;46834;51.100;6.886;2023-01-26T13:45:42;8.40;;;5.50;;
60964;SDS011;46834;51.100;6.886;2023-01-26T13:48:40;7.43;;;5.20;;
60964;SDS011;46834;51.100;6.886;2023-01-26T13:51:11;8.40;;;5.00;;
60964;SDS011;46834;51.100;6.886;2023-01-26T13:56:36;7.57;;;4.80;;
60964;SDS011;46834;51.100;6.886;2023-01-26T13:59:09;7.67;;;4.73;;
60964;SDS011;46834;51.100;6.886;2023-01-26T14:01:53;6.97;;;4.20;;
60964;SDS011;46834;51.100;6.886;2023-01-26T14:04:25;8.60;;;4.30;;
60964;SDS011;46834;51.100;6.886;2023-01-26T14:07:06;8.40;;;4.17;;
60964;SDS011;46834;51.100;6.886;2023-01-26T14:09:43;7.63;;;4.00;;
60964;SDS011;46834;51.100;6.886;2023-01-26T14:12:19;6.17;;;4.03;;
60964;SDS011;46834;51.100;6.886;2023-01-26T14:14:51;6.03;;;4.17;;
60964;SDS011;46834;51.100;6.886;2023-01-26T14:19:52;6.97;;;4.37;;
60964;SDS011;46834;51.100;6.886;2023-01-26T14:22:19;8.50;;;4.53;;
60964;SDS011;46834;51.100;6.886;2023-01-26T14:24:48;8.00;;;4.30;;
60964;SDS011;46834;51.100;6.886;2023-01-26T14:27:33;9.10;;;4.70;;
60964;SDS011;46834;51.100;6.886;2023-01-26T14:32:57;7.60;;;5.13;;
60964;SDS011;46834;51.100;6.886;2023-01-26T14:35:53;7.63;;;4.93;;
60964;SDS011;46834;51.100;6.886;2023-01-26T14:38:26;8.63;;;5.43;;
60964;SDS011;46834;51.100;6.886;2023-01-26T14:40:57;9.70;;;5.50;;
60964;SDS011;46834;51.100;6.886;2023-01-26T14:43:24;9.80;;;5.97;;
60964;SDS011;46834;51.100;6.886;2023-01-26T14:48:30;13.73;;;6.63;;
60964;SDS011;46834;51.100;6.886;2023-01-26T14:51:14;11.33;;;6.00;;
60964;SDS011;46834;51.100;6.886;2023-01-26T14:53:50;9.90;;;6.30;;
60964;SDS011;46834;51.100;6.886;2023-01-26T14:56:22;12.00;;;6.17;;
60964;SDS011;46834;51.100;6.886;2023-01-26T14:59:01;10.73;;;6.30;;
60964;SDS011;46834;51.100;6.886;2023-01-26T15:01:28;12.43;;;6.70;;
60964;SDS011;46834;51.100;6.886;2023-01-26T15:04:03;13.27;;;7.67;;
60964;SDS011;46834;51.100;6.886;2023-01-26T15:06:48;10.30;;;7.30;;
60964;SDS011;46834;51.100;6.886;2023-01-26T15:11:51;12.03;;;6.87;;
60964;SDS011;46834;51.100;6.886;2023-01-26T15:20:10;13.93;;;8.10;;
60964;SDS011;46834;51.100;6.886;2023-01-26T15:22:38;12.23;;;7.90;;
60964;SDS011;46834;51.100;6.886;2023-01-26T15:27:43;14.93;;;7.97;;
60964;SDS011;46834;51.100;6.886;2023-01-26T15:30:25;17.87;;;9.00;;
60964;SDS011;46834;51.100;6.886;2023-01-26T15:32:55;21.00;;;9.17;;
60964;SDS011;46834;51.100;6.886;2023-01-26T15:35:28;18.23;;;8.87;;
60964;SDS011;46834;51.100;6.886;2023-01-26T15:38:01;15.03;;;7.83;;
60964;SDS011;46834;51.100;6.886;2023-01-26T15:40:34;17.27;;;8.77;;
60964;SDS011;46834;51.100;6.886;2023-01-26T15:43:15;17.97;;;9.13;;
60964;SDS011;46834;51.100;6.886;2023-01-26T15:45:50;20.20;;;8.50;;
60964;SDS011;46834;51.100;6.886;2023-01-26T15:48:24;16.73;;;9.33;;
60964;SDS011;46834;51.100;6.886;2023-01-26T15:50:50;18.40;;;9.00;;
60964;SDS011;46834;51.100;6.886;2023-01-26T15:53:18;22.57;;;11.10;;
60964;SDS011;46834;51.100;6.886;2023-01-26T15:55:45;23.87;;;12.60;;
60964;SDS011;46834;51.100;6.886;2023-01-26T15:58:24;26.67;;;12.13;;
60964;SDS011;46834;51.100;6.886;2023-01-26T16:00:51;19.00;;;10.13;;
60964;SDS011;46834;51.100;6.886;2023-01-26T16:03:17;22.40;;;10.33;;
60964;SDS011;46834;51.100;6.886;2023-01-26T16:05:45;24.77;;;11.23;;
60964;SDS011;46834;51.100;6.886;2023-01-26T16:08:12;20.43;;;10.43;;
60964;SDS011;46834;51.100;6.886;2023-01-26T16:10:39;23.37;;;10.93;;
60964;SDS011;46834;51.100;6.886;2023-01-26T16:13:12;25.03;;;11.00;;
60964;SDS011;46834;51.100;6.886;2023-01-26T16:15:44;22.30;;;10.87;;
60964;SDS011;46834;51.100;6.886;2023-01-26T16:18:15;21.23;;;10.20;;
60964;SDS011;46834;51.100;6.886;2023-01-26T16:20:43;24.50;;;11.13;;
60964;SDS011;46834;51.100;6.886;2023-01-26T16:25:48;25.37;;;11.17;;
60964;SDS011;46834;51.100;6.886;2023-01-26T16:28:15;22.50;;;11.40;;
60964;SDS011;46834;51.100;6.886;2023-01-26T16:30:42;30.93;;;11.87;;
60964;SDS011;46834;51.100;6.886;2023-01-26T16:33:13;26.10;;;11.67;;
60964;SDS011;46834;51.100;6.886;2023-01-26T16:35:44;27.70;;;12.13;;
60964;SDS011;46834;51.100;6.886;2023-01-26T16:38:11;25.57;;;11.63;;
60964;SDS011;46834;51.100;6.886;2023-01-26T16:40:41;30.37;;;12.33;;